createdAt,value
2023-02-06T00:02:05.624Z,103261.50
2023-02-06T00:04:33.362Z,103271.16
2023-02-06T00:07:05.320Z,103272.97
2023-02-06T00:09:33.194Z,103259.97
2023-02-06T00:12:02.168Z,103258.22
2023-02-06T00:14:31.457Z,103267.81
2023-02-06T00:17:05.548Z,103256.59
2023-02-06T00:19:33.337Z,103258.34
2023-02-06T00:22:01.140Z,103250.44
2023-02-06T00:24:29.066Z,103208.22
2023-02-06T00:26:57.536Z,103242.84
2023-02-06T00:29:25.991Z,103259.16
2023-02-06T00:31:55.185Z,103250.44
2023-02-06T00:34:22.999Z,103251.47
2023-02-06T00:36:54.037Z,103216.03
2023-02-06T00:39:22.046Z,103237.56
2023-02-06T00:41:50.199Z,103221.13
2023-02-06T00:44:19.451Z,103240.25
2023-02-06T00:46:47.316Z,103224.13
2023-02-06T00:49:16.806Z,103254.38
2023-02-06T00:51:46.912Z,103239.84
2023-02-06T00:54:16.124Z,103240.53
2023-02-06T00:56:43.904Z,103245.91
2023-02-06T00:59:11.652Z,103239.16
2023-02-06T01:01:40.599Z,103232.19
2023-02-06T01:04:08.341Z,103254.00
2023-02-06T01:06:40.058Z,103247.97
2023-02-06T01:09:08.089Z,103223.09
2023-02-06T01:11:36.668Z,103242.06
2023-02-06T01:14:04.713Z,103245.66
2023-02-06T01:16:32.636Z,103251.97
2023-02-06T01:19:00.431Z,103258.22
2023-02-06T01:21:28.259Z,103262.72
2023-02-06T01:23:57.409Z,103261.97
2023-02-06T01:26:27.812Z,103258.47
2023-02-06T01:28:56.528Z,103260.38
2023-02-06T01:31:26.664Z,103259.50
2023-02-06T01:33:54.843Z,103266.47
2023-02-06T01:36:22.896Z,103248.38
2023-02-06T01:38:51.213Z,103266.59
2023-02-06T01:41:23.023Z,103271.91
2023-02-06T01:44:11.012Z,103269.31
2023-02-06T01:46:39.323Z,103269.28
2023-02-06T01:49:09.692Z,103250.31
2023-02-06T01:51:37.512Z,103274.53
2023-02-06T01:54:07.429Z,103270.19
2023-02-06T01:56:42.297Z,103264.94
2023-02-06T01:59:10.552Z,103261.44
2023-02-06T02:01:39.696Z,103261.44
2023-02-06T02:04:11.768Z,103264.97
2023-02-06T02:06:41.518Z,103265.06
2023-02-06T02:09:09.968Z,103263.50
2023-02-06T02:11:41.790Z,103261.69
2023-02-06T02:14:12.804Z,103251.50
2023-02-06T02:16:49.899Z,103259.16
2023-02-06T02:19:54.105Z,103268.06
2023-02-06T02:22:50.061Z,103270.97
2023-02-06T02:25:54.343Z,103262.25
2023-02-06T02:29:02.294Z,103264.59
2023-02-06T02:31:52.254Z,103254.19
2023-02-06T02:34:57.920Z,103260.94
2023-02-06T02:37:35.969Z,103256.50
2023-02-06T02:40:08.921Z,103255.56
2023-02-06T02:42:44.424Z,103241.84
2023-02-06T02:45:20.352Z,103247.81
2023-02-06T02:47:56.799Z,103243.44
2023-02-06T02:50:27.411Z,103248.63
2023-02-06T02:52:55.258Z,103241.78
2023-02-06T02:55:24.329Z,103240.97
2023-02-06T02:58:04.652Z,103255.00
2023-02-06T03:00:35.848Z,103245.41
2023-02-06T03:03:08.160Z,103251.63
2023-02-06T03:05:43.634Z,103264.09
2023-02-06T03:08:18.674Z,103248.53
2023-02-06T03:10:59.944Z,103259.88
2023-02-06T03:13:35.474Z,103276.44
2023-02-06T03:16:09.063Z,103247.94
2023-02-06T03:18:43.757Z,103278.25
2023-02-06T03:21:16.405Z,103283.44
2023-02-06T03:23:46.893Z,103297.53
2023-02-06T03:26:18.325Z,103297.41
2023-02-06T03:28:50.060Z,103295.66
2023-02-06T03:31:24.468Z,103289.31
2023-02-06T03:33:57.467Z,103291.03
2023-02-06T03:36:26.680Z,103292.66
2023-02-06T03:38:54.719Z,103291.66
2023-02-06T03:41:26.634Z,103283.78
2023-02-06T03:43:55.126Z,103278.59
2023-02-06T03:46:25.275Z,103266.38
2023-02-06T03:48:58.156Z,103273.41
2023-02-06T03:51:32.100Z,103277.66
2023-02-06T03:54:03.601Z,103281.19
2023-02-06T03:56:36.216Z,103272.41
2023-02-06T03:59:04.165Z,103286.28
2023-02-06T04:01:32.223Z,103281.03
2023-02-06T04:04:00.248Z,103274.97
2023-02-06T04:06:29.352Z,103270.56
2023-02-06T04:08:57.195Z,103268.88
2023-02-06T04:11:24.947Z,103249.72
2023-02-06T04:13:52.786Z,103261.97
2023-02-06T04:16:20.539Z,103261.06
2023-02-06T04:18:48.257Z,103268.97
2023-02-06T04:21:16.001Z,103269.84
2023-02-06T04:23:45.150Z,103276.03
2023-02-06T04:26:12.924Z,103272.44
2023-02-06T04:28:40.705Z,103273.31
2023-02-06T04:31:08.540Z,103271.78
2023-02-06T04:33:36.398Z,103266.66
2023-02-06T04:36:04.486Z,103274.41
2023-02-06T04:38:32.290Z,103264.06
2023-02-06T04:41:04.800Z,103278.81
2023-02-06T04:43:32.890Z,103274.47
2023-02-06T04:46:01.024Z,103274.47
2023-02-06T04:48:28.792Z,103281.41
2023-02-06T04:50:56.544Z,103277.91
2023-02-06T04:53:24.290Z,103286.50
2023-02-06T04:55:52.056Z,103285.66
2023-02-06T04:58:21.165Z,103288.19
2023-02-06T05:00:48.864Z,103270.31
2023-02-06T05:03:16.660Z,103288.28
2023-02-06T05:05:44.401Z,103284.72
2023-02-06T05:08:12.163Z,103290.72
2023-02-06T05:10:39.903Z,103291.41
2023-02-06T05:13:08.033Z,103293.06
2023-02-06T05:15:38.327Z,103298.22
2023-02-06T05:18:07.174Z,103294.97
2023-02-06T05:20:35.249Z,103301.78
2023-02-06T05:23:03.078Z,103299.94
2023-02-06T05:25:31.103Z,103288.53
2023-02-06T05:27:58.931Z,103284.06
2023-02-06T05:30:26.739Z,103281.47
2023-02-06T05:32:57.857Z,103288.53
2023-02-06T05:35:25.910Z,103282.22
2023-02-06T05:37:53.613Z,103270.22
2023-02-06T05:40:21.557Z,103277.00
2023-02-06T05:42:49.338Z,103285.69
2023-02-06T05:45:17.204Z,103286.53
2023-02-06T05:47:44.973Z,103289.97
2023-02-06T05:50:14.042Z,103284.63
2023-02-06T05:52:42.179Z,103275.16
2023-02-06T05:55:10.385Z,103256.09
2023-02-06T05:57:38.257Z,103266.28
2023-02-06T06:00:07.478Z,103269.88
2023-02-06T06:02:41.171Z,103264.63
2023-02-06T06:05:09.463Z,103248.25
2023-02-06T06:07:38.638Z,103268.97
2023-02-06T06:10:07.467Z,103261.13
2023-02-06T06:12:35.260Z,103261.22
2023-02-06T06:15:03.042Z,103265.56
2023-02-06T06:17:30.758Z,103258.78
2023-02-06T06:19:58.572Z,103259.66
2023-02-06T06:22:26.292Z,103259.63
2023-02-06T06:24:55.404Z,103265.81
2023-02-06T06:27:23.379Z,103264.88
2023-02-06T06:29:51.140Z,103264.72
2023-02-06T06:32:19.749Z,103267.47
2023-02-06T06:34:47.449Z,103269.19
2023-02-06T06:37:15.255Z,103270.94
2023-02-06T06:39:43.073Z,103277.97
2023-02-06T06:42:12.200Z,103276.28
2023-02-06T06:44:40.030Z,103282.56
2023-02-06T06:47:07.873Z,103278.06
2023-02-06T06:49:35.665Z,103280.66
2023-02-06T06:52:04.485Z,103280.63
2023-02-06T06:54:34.669Z,103276.25
2023-02-06T06:57:02.442Z,103273.69
2023-02-06T06:59:31.526Z,103270.16
2023-02-06T07:01:59.261Z,103269.13
2023-02-06T07:04:30.387Z,103265.72
2023-02-06T07:06:58.098Z,103264.06
2023-02-06T07:09:25.937Z,103267.56
2023-02-06T07:11:53.690Z,103268.44
2023-02-06T07:14:21.416Z,103264.13
2023-02-06T07:16:50.557Z,103269.28
2023-02-06T07:19:18.895Z,103271.03
2023-02-06T07:21:46.736Z,103266.66
2023-02-06T07:24:14.448Z,103275.34
2023-02-06T07:26:43.243Z,103275.31
2023-02-06T07:29:11.112Z,103271.75
2023-02-06T07:31:38.995Z,103284.91
2023-02-06T07:34:08.172Z,103278.72
2023-02-06T07:36:35.860Z,103275.34
2023-02-06T07:39:04.317Z,103276.06
2023-02-06T07:41:32.049Z,103276.88
2023-02-06T07:43:59.834Z,103285.53
2023-02-06T07:46:28.225Z,103278.56
2023-02-06T07:48:56.047Z,103261.25
2023-02-06T07:51:25.170Z,103266.28
2023-02-06T07:53:52.880Z,103256.81
2023-02-06T07:56:23.278Z,103264.44
2023-02-06T07:58:52.385Z,103276.69
2023-02-06T08:01:20.772Z,103276.56
2023-02-06T08:03:50.669Z,103268.66
2023-02-06T08:06:19.277Z,103275.59
2023-02-06T08:08:49.096Z,103274.75
2023-02-06T08:11:18.553Z,103273.84
2023-02-06T08:13:46.813Z,103268.47
2023-02-06T08:16:17.251Z,103266.69
2023-02-06T08:18:45.548Z,103270.13
2023-02-06T08:21:15.662Z,103272.63
2023-02-06T08:23:44.009Z,103274.25
2023-02-06T08:26:15.852Z,103272.47
2023-02-06T08:28:44.193Z,103274.13
2023-02-06T08:31:13.637Z,103276.75
2023-02-06T08:33:41.628Z,103284.53
2023-02-06T08:36:10.608Z,103288.03
2023-02-06T08:38:38.499Z,103289.00
2023-02-06T08:41:06.998Z,103293.22
2023-02-06T08:43:36.105Z,103290.59
2023-02-06T08:46:03.881Z,103283.53
2023-02-06T08:48:31.803Z,103276.41
2023-02-06T08:51:03.717Z,103286.78
2023-02-06T08:53:31.402Z,103276.19
2023-02-06T08:56:00.088Z,103274.44
2023-02-06T08:58:27.949Z,103280.78
2023-02-06T09:00:57.441Z,103298.25
2023-02-06T09:03:27.083Z,103301.94
2023-02-06T09:06:09.446Z,103289.78
2023-02-06T09:08:38.555Z,103285.22
2023-02-06T09:11:07.567Z,103286.09
2023-02-06T09:13:35.461Z,103289.53
2023-02-06T09:16:05.618Z,103298.38
2023-02-06T09:18:33.498Z,103289.66
2023-02-06T09:21:06.604Z,103300.38
2023-02-06T09:23:34.373Z,103300.97
2023-02-06T09:26:02.169Z,103293.84
2023-02-06T09:28:30.122Z,103299.03
2023-02-06T09:30:57.985Z,103293.84
2023-02-06T09:33:27.429Z,103296.31
2023-02-06T09:36:05.588Z,103293.59
2023-02-06T09:38:33.764Z,103298.72
2023-02-06T09:41:04.829Z,103294.25
2023-02-06T09:43:34.623Z,103286.25
2023-02-06T09:46:06.039Z,103273.31
2023-02-06T09:48:39.425Z,103299.34
2023-02-06T09:51:14.079Z,103294.09
2023-02-06T09:53:52.099Z,103298.22
2023-02-06T09:56:30.897Z,103291.34
2023-02-06T09:59:05.844Z,103292.00
2023-02-06T10:01:39.671Z,103296.44
2023-02-06T10:04:38.896Z,103287.72
2023-02-06T10:07:18.894Z,103293.66
2023-02-06T10:09:51.015Z,103286.50
2023-02-06T10:12:23.352Z,103283.69
2023-02-06T10:14:55.755Z,103289.97
2023-02-06T10:17:26.882Z,103284.19
2023-02-06T10:20:01.959Z,103287.72
2023-02-06T10:22:36.804Z,103279.09
2023-02-06T10:25:21.026Z,103296.25
2023-02-06T10:27:56.149Z,103294.84
2023-02-06T10:30:35.200Z,103281.13
2023-02-06T10:33:23.870Z,103281.25
2023-02-06T10:36:02.604Z,103278.59
2023-02-06T10:38:52.407Z,103274.38
2023-02-06T10:41:29.546Z,103280.28
2023-02-06T10:44:06.002Z,103270.56
2023-02-06T10:46:43.959Z,103267.75
2023-02-06T10:49:19.558Z,103261.47
2023-02-06T10:51:52.875Z,103236.00
2023-02-06T10:54:25.424Z,103250.94
2023-02-06T10:56:56.657Z,103243.16
2023-02-06T10:59:30.041Z,103243.31
2023-02-06T11:02:06.683Z,103241.34
2023-02-06T11:04:38.831Z,103237.91
2023-02-06T11:07:18.603Z,103238.63
2023-02-06T11:09:46.380Z,103225.19
2023-02-06T11:12:24.908Z,103225.63
2023-02-06T11:14:55.849Z,103236.63
2023-02-06T11:17:28.167Z,103236.56
2023-02-06T11:20:05.289Z,103236.78
2023-02-06T11:22:44.280Z,103236.50
2023-02-06T11:25:24.478Z,103230.28
2023-02-06T11:27:52.712Z,103226.13
2023-02-06T11:30:33.514Z,103226.63
2023-02-06T11:33:07.528Z,103191.66
2023-02-06T11:35:48.376Z,103201.81
2023-02-06T11:38:20.758Z,103218.88
2023-02-06T11:40:57.300Z,103221.72
2023-02-06T11:43:26.430Z,103204.44
2023-02-06T11:46:15.148Z,103216.78
2023-02-06T11:48:45.317Z,103211.00
2023-02-06T11:51:16.829Z,103182.13
2023-02-06T11:54:02.776Z,103204.28
2023-02-06T11:56:32.645Z,103194.56
2023-02-06T11:59:10.636Z,103205.84
2023-02-06T12:01:44.608Z,103200.84
2023-02-06T12:04:23.662Z,103201.94
2023-02-06T12:06:55.675Z,103194.97
2023-02-06T12:09:24.806Z,103190.72
2023-02-06T12:11:58.143Z,103192.28
2023-02-06T12:14:32.732Z,103189.97
2023-02-06T12:17:03.740Z,103186.78
2023-02-06T12:19:36.837Z,103182.19
2023-02-06T12:22:13.387Z,103183.25
2023-02-06T12:24:46.343Z,103170.88
2023-02-06T12:27:18.881Z,103178.94
2023-02-06T12:29:54.398Z,103181.72
2023-02-06T12:32:29.447Z,103175.69
2023-02-06T12:35:01.320Z,103177.19
2023-02-06T12:37:39.539Z,103182.13
2023-02-06T12:40:20.080Z,103169.53
2023-02-06T12:42:56.176Z,103164.38
2023-02-06T12:45:34.115Z,103167.84
2023-02-06T12:48:12.374Z,103166.81
2023-02-06T12:50:43.779Z,103137.94
2023-02-06T12:53:17.321Z,103146.84
2023-02-06T12:55:53.999Z,103140.63
2023-02-06T12:58:26.043Z,103137.38
2023-02-06T13:01:29.241Z,103129.94
2023-02-06T13:04:01.607Z,103123.16
2023-02-06T13:06:32.200Z,103122.66
2023-02-06T13:09:06.378Z,103132.78
2023-02-06T13:11:38.955Z,103140.78
2023-02-06T13:14:16.101Z,103134.81
2023-02-06T13:16:46.757Z,103134.88
2023-02-06T13:19:28.663Z,103128.94
2023-02-06T13:22:33.419Z,103131.44
2023-02-06T13:25:03.251Z,103120.19
2023-02-06T13:27:39.955Z,103117.38
2023-02-06T13:30:47.491Z,103115.66
2023-02-06T13:33:17.138Z,103116.34
2023-02-06T13:35:58.473Z,103094.63
2023-02-06T13:38:29.922Z,103107.56
2023-02-06T13:41:34.251Z,103111.81
2023-02-06T13:44:06.720Z,103108.28
2023-02-06T13:47:08.010Z,103100.56
2023-02-06T13:49:57.464Z,103106.22
2023-02-06T13:52:34.098Z,103100.66
2023-02-06T13:55:19.441Z,103103.03
2023-02-06T13:58:20.557Z,103089.94
2023-02-06T14:00:52.219Z,103099.44
2023-02-06T14:03:24.878Z,103072.50
2023-02-06T14:06:00.782Z,103083.59
2023-02-06T14:08:37.192Z,103076.31
2023-02-06T14:11:17.170Z,103054.63
2023-02-06T14:13:59.738Z,103076.66
2023-02-06T14:16:43.135Z,103095.66
2023-02-06T14:19:21.040Z,103093.94
2023-02-06T14:21:58.901Z,103088.78
2023-02-06T14:24:40.420Z,103094.38
2023-02-06T14:27:23.419Z,103100.69
2023-02-06T14:30:03.582Z,103101.66
2023-02-06T14:32:41.343Z,103089.53
2023-02-06T14:35:41.519Z,103089.53
2023-02-06T14:38:34.385Z,103097.56
2023-02-06T14:41:04.093Z,103092.84
2023-02-06T14:43:46.840Z,103103.38
2023-02-06T14:46:17.905Z,103103.38
2023-02-06T14:48:51.786Z,103079.78
2023-02-06T14:51:24.803Z,103095.31
2023-02-06T14:53:56.097Z,103097.97
2023-02-06T14:56:30.112Z,103098.06
2023-02-06T14:59:08.270Z,103096.38
2023-02-06T15:01:36.319Z,103056.03
2023-02-06T15:04:15.465Z,103093.97
2023-02-06T15:06:45.029Z,103091.41
2023-02-06T15:09:27.802Z,103101.06
2023-02-06T15:11:57.680Z,103103.78
2023-02-06T15:14:27.626Z,103101.22
2023-02-06T15:16:59.680Z,103104.88
2023-02-06T15:19:30.850Z,103099.91
2023-02-06T15:22:10.791Z,103111.19
2023-02-06T15:24:55.659Z,103099.03
2023-02-06T15:27:31.082Z,103103.38
2023-02-06T15:30:00.302Z,103110.41
2023-02-06T15:32:30.242Z,103107.84
2023-02-06T15:35:02.220Z,103100.25
2023-02-06T15:37:32.726Z,103096.50
2023-02-06T15:40:05.760Z,103075.06
2023-02-06T15:42:33.795Z,103095.72
2023-02-06T15:45:02.081Z,103090.56
2023-02-06T15:47:30.706Z,103089.69
2023-02-06T15:50:00.589Z,103092.44
2023-02-06T15:52:37.307Z,103083.72
2023-02-06T15:55:05.840Z,103083.72
2023-02-06T15:57:36.501Z,103068.16
2023-02-06T16:00:09.512Z,103078.31
2023-02-06T16:02:40.895Z,103078.41
2023-02-06T16:05:26.171Z,103067.88
2023-02-06T16:07:54.795Z,103048.19
2023-02-06T16:10:26.518Z,103077.50
2023-02-06T16:12:55.818Z,103083.66
2023-02-06T16:15:30.087Z,103080.19
2023-02-06T16:18:00.448Z,103074.94
2023-02-06T16:20:37.002Z,103079.38
2023-02-06T16:23:29.883Z,103080.41
2023-02-06T16:26:03.562Z,103077.78
2023-02-06T16:28:31.418Z,103082.09
2023-02-06T16:31:02.045Z,103068.94
2023-02-06T16:33:38.154Z,103066.41
2023-02-06T16:36:08.541Z,103059.78
2023-02-06T16:38:36.266Z,103064.72
2023-02-06T16:41:04.325Z,103050.13
2023-02-06T16:43:32.511Z,103063.19
2023-02-06T16:46:02.262Z,103063.19
2023-02-06T16:48:30.194Z,103061.41
2023-02-06T16:50:58.057Z,103058.84
2023-02-06T16:53:27.276Z,103054.47
2023-02-06T16:55:55.084Z,103059.75
2023-02-06T16:58:27.058Z,103061.41
2023-02-06T17:00:54.891Z,103067.47
2023-02-06T17:03:22.680Z,103057.78
2023-02-06T17:05:53.034Z,103024.50
2023-02-06T17:08:23.907Z,103023.56
2023-02-06T17:10:53.512Z,103042.56
2023-02-06T17:13:23.546Z,103033.91
2023-02-06T17:15:53.379Z,103049.53
2023-02-06T17:18:22.640Z,103065.81
2023-02-06T17:20:52.837Z,103061.28
2023-02-06T17:23:21.343Z,103061.38
2023-02-06T17:25:49.952Z,103063.09
2023-02-06T17:28:21.139Z,103056.09
2023-02-06T17:30:50.803Z,103048.31
2023-02-06T17:33:18.864Z,103048.34
2023-02-06T17:35:48.292Z,103036.75
2023-02-06T17:38:16.215Z,103055.88
2023-02-06T17:40:44.177Z,103062.41
2023-02-06T17:43:12.133Z,103050.47
2023-02-06T17:45:41.834Z,103066.41
2023-02-06T17:48:10.213Z,103071.78
2023-02-06T17:50:38.758Z,103078.84
2023-02-06T17:53:07.102Z,103075.19
2023-02-06T17:55:36.237Z,103050.13
2023-02-06T17:58:04.432Z,103073.41
2023-02-06T18:00:32.485Z,103078.56
2023-02-06T18:03:01.779Z,103060.41
2023-02-06T18:05:29.681Z,103061.81
2023-02-06T18:07:57.564Z,103065.13
2023-02-06T18:10:26.717Z,103063.44
2023-02-06T18:12:54.526Z,103054.59
2023-02-06T18:15:24.578Z,103056.44
2023-02-06T18:17:54.841Z,103051.16
2023-02-06T18:20:24.262Z,103053.94
2023-02-06T18:22:52.438Z,103057.38
2023-02-06T18:25:20.243Z,103037.53
2023-02-06T18:27:48.131Z,103043.59
2023-02-06T18:30:17.315Z,103028.22
2023-02-06T18:32:45.104Z,103054.31
2023-02-06T18:35:14.860Z,103061.94
2023-02-06T18:37:44.253Z,103056.69
2023-02-06T18:40:12.896Z,103052.47
2023-02-06T18:42:55.623Z,103071.50
2023-02-06T18:45:25.576Z,103077.66
2023-02-06T18:47:53.408Z,103076.78
2023-02-06T18:50:22.171Z,103071.66
2023-02-06T18:52:51.693Z,103072.56
2023-02-06T18:55:19.825Z,103068.44
2023-02-06T18:57:47.924Z,103068.59
2023-02-06T19:00:17.828Z,103080.66
2023-02-06T19:02:45.819Z,103082.59
2023-02-06T19:05:16.300Z,103069.81
2023-02-06T19:07:44.063Z,103075.94
2023-02-06T19:10:16.143Z,103072.50
2023-02-06T19:12:46.617Z,103071.81
2023-02-06T19:15:17.791Z,103061.56
2023-02-06T19:17:49.558Z,103048.00
2023-02-06T19:20:18.609Z,103078.44
2023-02-06T19:22:53.099Z,103066.25
2023-02-06T19:25:25.199Z,103045.91
2023-02-06T19:27:56.839Z,103072.78
2023-02-06T19:30:24.658Z,103066.84
2023-02-06T19:32:52.535Z,103071.41
2023-02-06T19:35:20.399Z,103068.97
2023-02-06T19:37:48.289Z,103067.38
2023-02-06T19:40:16.216Z,103066.41
2023-02-06T19:42:45.395Z,103068.19
2023-02-06T19:45:13.255Z,103070.19
2023-02-06T19:47:41.037Z,103075.72
2023-02-06T19:50:09.462Z,103082.81
2023-02-06T19:52:57.012Z,103082.97
2023-02-06T19:55:24.864Z,103090.00
2023-02-06T19:57:54.059Z,103108.56
2023-02-06T20:00:22.268Z,103093.88
2023-02-06T20:02:50.124Z,103089.63
2023-02-06T20:05:20.289Z,103094.94
2023-02-06T20:07:48.188Z,103087.06
2023-02-06T20:10:16.093Z,103085.53
2023-02-06T20:12:44.182Z,103084.63
2023-02-06T20:15:14.169Z,103095.00
2023-02-06T20:17:42.194Z,103087.97
2023-02-06T20:20:11.226Z,103088.25
2023-02-06T20:22:39.921Z,103094.63
2023-02-06T20:25:08.608Z,103104.31
2023-02-06T20:27:36.390Z,103103.47
2023-02-06T20:30:04.847Z,103107.84
2023-02-06T20:32:33.937Z,103094.91
2023-02-06T20:35:01.755Z,103092.47
2023-02-06T20:37:29.834Z,103079.53
2023-02-06T20:39:57.737Z,103103.84
2023-02-06T20:42:27.297Z,103105.72
2023-02-06T20:44:56.070Z,103107.47
2023-02-06T20:47:23.889Z,103092.94
2023-02-06T20:49:52.992Z,103105.00
2023-02-06T20:52:21.790Z,103091.06
2023-02-06T20:54:49.647Z,103098.06
2023-02-06T20:57:17.455Z,103077.66
2023-02-06T20:59:45.314Z,103101.63
2023-02-06T21:02:13.202Z,103092.22
2023-02-06T21:04:41.164Z,103097.38
2023-02-06T21:07:10.370Z,103096.59
2023-02-06T21:09:38.149Z,103091.38
2023-02-06T21:12:06.110Z,103098.50
2023-02-06T21:14:33.943Z,103097.59
2023-02-06T21:17:01.757Z,103094.09
2023-02-06T21:19:29.511Z,103089.81
2023-02-06T21:21:57.577Z,103090.69
2023-02-06T21:24:26.761Z,103084.00
2023-02-06T21:26:54.738Z,103085.56
2023-02-06T21:29:22.946Z,103086.44
2023-02-06T21:32:12.515Z,103089.03
2023-02-06T21:34:52.563Z,103082.91
2023-02-06T21:37:22.571Z,103049.25
2023-02-06T21:39:54.841Z,103045.94
2023-02-06T21:42:26.205Z,103067.44
2023-02-06T21:44:54.389Z,103076.28
2023-02-06T21:47:22.315Z,103063.31
2023-02-06T21:49:50.114Z,103060.72
2023-02-06T21:52:17.976Z,103069.31
2023-02-06T21:54:47.884Z,103066.66
2023-02-06T21:57:17.042Z,103071.94
2023-02-06T21:59:52.112Z,103072.97
2023-02-06T22:02:22.557Z,103064.38
2023-02-06T22:04:51.009Z,103073.06
2023-02-06T22:07:19.752Z,103066.22
2023-02-06T22:09:47.504Z,103079.38
2023-02-06T22:12:15.447Z,103077.63
2023-02-06T22:14:44.747Z,103071.63
2023-02-06T22:17:12.512Z,103063.06
2023-02-06T22:19:43.438Z,103073.53
2023-02-06T22:22:12.581Z,103063.94
2023-02-06T22:24:40.388Z,103076.09
2023-02-06T22:27:08.470Z,103053.69
2023-02-06T22:29:43.478Z,103049.53
2023-02-06T22:32:12.738Z,103057.25
2023-02-06T22:34:40.566Z,103040.91
2023-02-06T22:37:08.349Z,103068.53
2023-02-06T22:39:36.150Z,103049.47
2023-02-06T22:42:08.604Z,103043.28
2023-02-06T22:44:36.366Z,103052.72
2023-02-06T22:47:04.613Z,103074.59
2023-02-06T22:49:33.788Z,103071.78
2023-02-06T22:52:01.625Z,103073.84
2023-02-06T22:54:29.492Z,103074.72
2023-02-06T22:56:57.839Z,103085.03
2023-02-06T22:59:26.705Z,103080.69
2023-02-06T23:01:57.759Z,103067.56
2023-02-06T23:04:28.343Z,103068.38
2023-02-06T23:06:58.203Z,103071.13
2023-02-06T23:09:34.448Z,103068.56
2023-02-06T23:12:06.653Z,103070.19
2023-02-06T23:14:34.789Z,103076.38
2023-02-06T23:17:04.184Z,103078.03
2023-02-06T23:19:32.431Z,103070.28
2023-02-06T23:22:02.940Z,103057.25
2023-02-06T23:24:33.681Z,103058.16
2023-02-06T23:27:03.639Z,103088.53
2023-02-06T23:29:36.862Z,103067.63
2023-02-06T23:32:05.484Z,103067.69
2023-02-06T23:34:33.256Z,103058.06
2023-02-06T23:37:02.438Z,103073.66
2023-02-06T23:39:36.624Z,103078.09
2023-02-06T23:42:04.685Z,103061.69
2023-02-06T23:44:32.774Z,103051.25
2023-02-06T23:47:00.556Z,103083.38
2023-02-06T23:49:28.409Z,103088.59
2023-02-06T23:51:56.220Z,103089.41
2023-02-06T23:54:27.976Z,103088.63
2023-02-06T23:56:55.777Z,103087.91
2023-02-06T23:59:23.711Z,103085.34
